sensor_id;sensor_type;location;lat;lon;timestamp;temperature;humidity
7658;DHT22;8462;53.156;8.220;2023-02-28T00:00:12;8.00;67.50
7658;DHT22;8462;53.156;8.220;2023-02-28T00:02:41;8.00;67.70
7658;DHT22;8462;53.156;8.220;2023-02-28T00:05:10;8.00;67.80
7658;DHT22;8462;53.156;8.220;2023-02-28T00:07:37;8.00;67.90
7658;DHT22;8462;53.156;8.220;2023-02-28T00:10:09;8.00;68.10
7658;DHT22;8462;53.156;8.220;2023-02-28T00:12:37;7.90;68.10
7658;DHT22;8462;53.156;8.220;2023-02-28T00:15:06;8.00;68.30
7658;DHT22;8462;53.156;8.220;2023-02-28T00:17:33;7.90;67.80
7658;DHT22;8462;53.156;8.220;2023-02-28T00:20:00;7.90;67.80
7658;DHT22;8462;53.156;8.220;2023-02-28T00:22:37;7.90;68.10
7658;DHT22;8462;53.156;8.220;2023-02-28T00:25:07;7.90;68.30
7658;DHT22;8462;53.156;8.220;2023-02-28T00:27:34;7.90;68.40
7658;DHT22;8462;53.156;8.220;2023-02-28T00:30:06;7.90;68.30
7658;DHT22;8462;53.156;8.220;2023-02-28T00:32:34;7.90;68.60
7658;DHT22;8462;53.156;8.220;2023-02-28T00:35:01;7.90;68.60
7658;DHT22;8462;53.156;8.220;2023-02-28T00:37:28;7.80;69.20
7658;DHT22;8462;53.156;8.220;2023-02-28T00:39:55;7.80;69.10
7658;DHT22;8462;53.156;8.220;2023-02-28T00:42:24;7.90;68.80
7658;DHT22;8462;53.156;8.220;2023-02-28T00:44:51;7.90;69.10
7658;DHT22;8462;53.156;8.220;2023-02-28T00:47:18;7.90;68.90
7658;DHT22;8462;53.156;8.220;2023-02-28T00:49:44;7.90;69.10
7658;DHT22;8462;53.156;8.220;2023-02-28T00:52:11;7.90;68.60
7658;DHT22;8462;53.156;8.220;2023-02-28T00:54:38;7.80;68.40
7658;DHT22;8462;53.156;8.220;2023-02-28T00:57:07;7.80;68.60
7658;DHT22;8462;53.156;8.220;2023-02-28T00:59:35;7.80;68.70
7658;DHT22;8462;53.156;8.220;2023-02-28T01:02:02;7.70;68.90
7658;DHT22;8462;53.156;8.220;2023-02-28T01:04:28;7.80;69.40
7658;DHT22;8462;53.156;8.220;2023-02-28T01:06:55;7.80;69.50
7658;DHT22;8462;53.156;8.220;2023-02-28T01:09:22;7.70;69.60
7658;DHT22;8462;53.156;8.220;2023-02-28T01:11:49;7.80;69.20
7658;DHT22;8462;53.156;8.220;2023-02-28T01:14:17;7.80;69.30
7658;DHT22;8462;53.156;8.220;2023-02-28T01:16:46;7.80;69.20
7658;DHT22;8462;53.156;8.220;2023-02-28T01:19:13;7.80;69.40
7658;DHT22;8462;53.156;8.220;2023-02-28T01:21:40;7.80;69.40
7658;DHT22;8462;53.156;8.220;2023-02-28T01:24:07;7.80;69.20
7658;DHT22;8462;53.156;8.220;2023-02-28T01:26:35;7.80;69.00
7658;DHT22;8462;53.156;8.220;2023-02-28T01:29:02;7.90;69.00
7658;DHT22;8462;53.156;8.220;2023-02-28T01:31:29;7.90;69.00
7658;DHT22;8462;53.156;8.220;2023-02-28T01:33:58;7.90;69.30
7658;DHT22;8462;53.156;8.220;2023-02-28T01:36:28;7.90;69.30
7658;DHT22;8462;53.156;8.220;2023-02-28T01:38:55;7.90;68.90
7658;DHT22;8462;53.156;8.220;2023-02-28T01:41:24;7.90;68.60
7658;DHT22;8462;53.156;8.220;2023-02-28T01:43:56;7.90;68.70
7658;DHT22;8462;53.156;8.220;2023-02-28T01:46:24;7.90;68.80
7658;DHT22;8462;53.156;8.220;2023-02-28T01:48:58;7.80;69.00
7658;DHT22;8462;53.156;8.220;2023-02-28T01:51:29;7.80;69.40
7658;DHT22;8462;53.156;8.220;2023-02-28T01:54:01;7.80;69.50
7658;DHT22;8462;53.156;8.220;2023-02-28T01:56:32;7.80;69.50
7658;DHT22;8462;53.156;8.220;2023-02-28T01:59:00;7.80;69.50
7658;DHT22;8462;53.156;8.220;2023-02-28T02:01:27;7.70;69.60
7658;DHT22;8462;53.156;8.220;2023-02-28T02:04:00;7.70;69.70
7658;DHT22;8462;53.156;8.220;2023-02-28T02:06:31;7.70;69.70
7658;DHT22;8462;53.156;8.220;2023-02-28T02:09:00;7.70;70.00
7658;DHT22;8462;53.156;8.220;2023-02-28T02:11:28;7.60;70.00
7658;DHT22;8462;53.156;8.220;2023-02-28T02:14:17;7.60;70.30
7658;DHT22;8462;53.156;8.220;2023-02-28T02:16:59;7.60;70.40
7658;DHT22;8462;53.156;8.220;2023-02-28T02:19:46;7.50;70.60
7658;DHT22;8462;53.156;8.220;2023-02-28T02:25:19;7.50;70.90
7658;DHT22;8462;53.156;8.220;2023-02-28T02:28:22;7.50;71.10
7658;DHT22;8462;53.156;8.220;2023-02-28T02:31:27;7.60;71.00
7658;DHT22;8462;53.156;8.220;2023-02-28T02:34:23;7.50;70.90
7658;DHT22;8462;53.156;8.220;2023-02-28T02:37:00;7.50;71.00
7658;DHT22;8462;53.156;8.220;2023-02-28T02:39:33;7.50;71.10
7658;DHT22;8462;53.156;8.220;2023-02-28T02:42:08;7.50;71.00
7658;DHT22;8462;53.156;8.220;2023-02-28T02:44:41;7.60;71.10
7658;DHT22;8462;53.156;8.220;2023-02-28T02:47:12;7.60;71.20
7658;DHT22;8462;53.156;8.220;2023-02-28T02:49:45;7.50;71.10
7658;DHT22;8462;53.156;8.220;2023-02-28T02:52:15;7.50;70.80
7658;DHT22;8462;53.156;8.220;2023-02-28T02:54:46;7.50;70.90
7658;DHT22;8462;53.156;8.220;2023-02-28T02:57:19;7.50;71.00
7658;DHT22;8462;53.156;8.220;2023-02-28T02:59:47;7.60;71.00
7658;DHT22;8462;53.156;8.220;2023-02-28T03:02:17;7.50;71.20
7658;DHT22;8462;53.156;8.220;2023-02-28T03:04:51;7.40;71.30
7658;DHT22;8462;53.156;8.220;2023-02-28T03:07:20;7.40;71.60
7658;DHT22;8462;53.156;8.220;2023-02-28T03:09:51;7.30;71.90
7658;DHT22;8462;53.156;8.220;2023-02-28T03:12:19;7.30;72.30
7658;DHT22;8462;53.156;8.220;2023-02-28T03:14:56;7.20;72.40
7658;DHT22;8462;53.156;8.220;2023-02-28T03:17:47;7.20;72.60
7658;DHT22;8462;53.156;8.220;2023-02-28T03:20:25;7.20;72.60
7658;DHT22;8462;53.156;8.220;2023-02-28T03:23:03;7.10;72.60
7658;DHT22;8462;53.156;8.220;2023-02-28T03:25:38;7.10;72.70
7658;DHT22;8462;53.156;8.220;2023-02-28T03:28:15;7.10;72.90
7658;DHT22;8462;53.156;8.220;2023-02-28T03:30:49;7.10;72.60
7658;DHT22;8462;53.156;8.220;2023-02-28T03:33:23;7.20;73.00
7658;DHT22;8462;53.156;8.220;2023-02-28T03:35:55;7.30;72.60
7658;DHT22;8462;53.156;8.220;2023-02-28T03:38:29;7.30;72.20
7658;DHT22;8462;53.156;8.220;2023-02-28T03:41:02;7.30;72.20
7658;DHT22;8462;53.156;8.220;2023-02-28T03:43:35;7.30;72.40
7658;DHT22;8462;53.156;8.220;2023-02-28T03:46:07;7.20;72.60
7658;DHT22;8462;53.156;8.220;2023-02-28T03:48:38;7.20;72.80
7658;DHT22;8462;53.156;8.220;2023-02-28T03:51:09;7.10;73.10
7658;DHT22;8462;53.156;8.220;2023-02-28T03:53:39;7.10;73.30
7658;DHT22;8462;53.156;8.220;2023-02-28T03:56:18;7.10;73.50
7658;DHT22;8462;53.156;8.220;2023-02-28T03:58:51;7.00;73.40
7658;DHT22;8462;53.156;8.220;2023-02-28T04:01:23;7.00;73.20
7658;DHT22;8462;53.156;8.220;2023-02-28T04:03:51;7.00;73.20
7658;DHT22;8462;53.156;8.220;2023-02-28T04:06:22;7.00;73.20
7658;DHT22;8462;53.156;8.220;2023-02-28T04:08:49;7.00;73.10
7658;DHT22;8462;53.156;8.220;2023-02-28T04:11:21;7.00;73.30
7658;DHT22;8462;53.156;8.220;2023-02-28T04:13:48;7.00;74.40
7658;DHT22;8462;53.156;8.220;2023-02-28T04:16:16;7.00;74.30
7658;DHT22;8462;53.156;8.220;2023-02-28T04:18:43;7.00;73.40
7658;DHT22;8462;53.156;8.220;2023-02-28T04:21:11;7.10;73.40
7658;DHT22;8462;53.156;8.220;2023-02-28T04:23:39;7.10;73.10
7658;DHT22;8462;53.156;8.220;2023-02-28T04:26:06;7.10;73.20
7658;DHT22;8462;53.156;8.220;2023-02-28T04:28:33;7.20;72.90
7658;DHT22;8462;53.156;8.220;2023-02-28T04:31:02;7.20;72.80
7658;DHT22;8462;53.156;8.220;2023-02-28T04:33:30;7.20;72.90
7658;DHT22;8462;53.156;8.220;2023-02-28T04:36:01;7.10;72.70
7658;DHT22;8462;53.156;8.220;2023-02-28T04:38:29;7.10;73.00
7658;DHT22;8462;53.156;8.220;2023-02-28T04:40:58;7.10;73.00
7658;DHT22;8462;53.156;8.220;2023-02-28T04:43:26;7.00;72.90
7658;DHT22;8462;53.156;8.220;2023-02-28T04:45:54;6.90;72.90
7658;DHT22;8462;53.156;8.220;2023-02-28T04:48:22;6.90;74.10
7658;DHT22;8462;53.156;8.220;2023-02-28T04:50:49;7.00;73.20
7658;DHT22;8462;53.156;8.220;2023-02-28T04:53:16;6.90;72.90
7658;DHT22;8462;53.156;8.220;2023-02-28T04:55:43;6.90;72.80
7658;DHT22;8462;53.156;8.220;2023-02-28T04:58:12;6.90;72.60
7658;DHT22;8462;53.156;8.220;2023-02-28T05:00:39;6.90;72.50
7658;DHT22;8462;53.156;8.220;2023-02-28T05:03:06;6.90;72.60
7658;DHT22;8462;53.156;8.220;2023-02-28T05:05:33;6.90;72.60
7658;DHT22;8462;53.156;8.220;2023-02-28T05:07:59;6.90;72.60
7658;DHT22;8462;53.156;8.220;2023-02-28T05:10:26;6.80;72.50
7658;DHT22;8462;53.156;8.220;2023-02-28T05:12:53;6.80;72.10
7658;DHT22;8462;53.156;8.220;2023-02-28T05:15:21;6.80;72.10
7658;DHT22;8462;53.156;8.220;2023-02-28T05:17:48;6.80;71.90
7658;DHT22;8462;53.156;8.220;2023-02-28T05:20:15;6.70;71.70
7658;DHT22;8462;53.156;8.220;2023-02-28T05:22:43;6.70;71.80
7658;DHT22;8462;53.156;8.220;2023-02-28T05:25:13;6.70;71.70
7658;DHT22;8462;53.156;8.220;2023-02-28T05:27:40;6.70;72.30
7658;DHT22;8462;53.156;8.220;2023-02-28T05:30:09;6.60;71.90
7658;DHT22;8462;53.156;8.220;2023-02-28T05:32:38;6.60;72.00
7658;DHT22;8462;53.156;8.220;2023-02-28T05:35:09;6.50;72.00
7658;DHT22;8462;53.156;8.220;2023-02-28T05:37:37;6.50;72.10
7658;DHT22;8462;53.156;8.220;2023-02-28T05:40:06;6.40;72.30
7658;DHT22;8462;53.156;8.220;2023-02-28T05:42:36;6.30;72.50
7658;DHT22;8462;53.156;8.220;2023-02-28T05:45:03;6.20;72.50
7658;DHT22;8462;53.156;8.220;2023-02-28T05:47:31;6.10;72.80
7658;DHT22;8462;53.156;8.220;2023-02-28T05:49:59;6.00;72.90
7658;DHT22;8462;53.156;8.220;2023-02-28T05:52:26;6.00;73.00
7658;DHT22;8462;53.156;8.220;2023-02-28T05:54:53;5.90;73.10
7658;DHT22;8462;53.156;8.220;2023-02-28T05:57:20;5.90;73.20
7658;DHT22;8462;53.156;8.220;2023-02-28T05:59:47;6.00;73.50
7658;DHT22;8462;53.156;8.220;2023-02-28T06:02:16;6.00;73.60
7658;DHT22;8462;53.156;8.220;2023-02-28T06:04:44;6.10;73.40
7658;DHT22;8462;53.156;8.220;2023-02-28T06:07:12;6.20;73.10
7658;DHT22;8462;53.156;8.220;2023-02-28T06:09:39;6.20;73.20
7658;DHT22;8462;53.156;8.220;2023-02-28T06:12:07;6.30;73.10
7658;DHT22;8462;53.156;8.220;2023-02-28T06:14:35;6.30;73.00
7658;DHT22;8462;53.156;8.220;2023-02-28T06:17:03;6.40;72.50
7658;DHT22;8462;53.156;8.220;2023-02-28T06:19:30;6.40;72.30
7658;DHT22;8462;53.156;8.220;2023-02-28T06:21:57;6.40;72.10
7658;DHT22;8462;53.156;8.220;2023-02-28T06:24:26;6.40;72.10
7658;DHT22;8462;53.156;8.220;2023-02-28T06:26:54;6.40;72.20
7658;DHT22;8462;53.156;8.220;2023-02-28T06:29:21;6.30;72.00
7658;DHT22;8462;53.156;8.220;2023-02-28T06:31:48;6.30;73.20
7658;DHT22;8462;53.156;8.220;2023-02-28T06:34:15;6.40;72.20
7658;DHT22;8462;53.156;8.220;2023-02-28T06:36:42;6.40;72.40
7658;DHT22;8462;53.156;8.220;2023-02-28T06:39:10;6.50;72.00
7658;DHT22;8462;53.156;8.220;2023-02-28T06:41:38;6.60;71.70
7658;DHT22;8462;53.156;8.220;2023-02-28T06:44:08;6.60;71.50
7658;DHT22;8462;53.156;8.220;2023-02-28T06:46:40;6.70;71.50
7658;DHT22;8462;53.156;8.220;2023-02-28T06:49:08;6.70;71.40
7658;DHT22;8462;53.156;8.220;2023-02-28T06:51:36;6.70;70.70
7658;DHT22;8462;53.156;8.220;2023-02-28T06:54:03;6.70;70.40
7658;DHT22;8462;53.156;8.220;2023-02-28T06:56:31;6.60;70.50
7658;DHT22;8462;53.156;8.220;2023-02-28T06:59:00;6.70;70.40
7658;DHT22;8462;53.156;8.220;2023-02-28T07:01:26;6.70;70.20
7658;DHT22;8462;53.156;8.220;2023-02-28T07:03:53;6.70;69.80
7658;DHT22;8462;53.156;8.220;2023-02-28T07:06:21;6.70;69.80
7658;DHT22;8462;53.156;8.220;2023-02-28T07:08:49;6.70;69.50
7658;DHT22;8462;53.156;8.220;2023-02-28T07:11:16;6.60;69.50
7658;DHT22;8462;53.156;8.220;2023-02-28T07:13:43;6.60;69.50
7658;DHT22;8462;53.156;8.220;2023-02-28T07:16:11;6.60;69.50
7658;DHT22;8462;53.156;8.220;2023-02-28T07:18:38;6.60;69.20
7658;DHT22;8462;53.156;8.220;2023-02-28T07:21:07;6.60;69.40
7658;DHT22;8462;53.156;8.220;2023-02-28T07:23:35;6.60;69.50
7658;DHT22;8462;53.156;8.220;2023-02-28T07:26:03;6.60;69.40
7658;DHT22;8462;53.156;8.220;2023-02-28T07:28:30;6.60;68.60
7658;DHT22;8462;53.156;8.220;2023-02-28T07:31:03;6.70;68.80
7658;DHT22;8462;53.156;8.220;2023-02-28T07:33:31;6.80;68.60
7658;DHT22;8462;53.156;8.220;2023-02-28T07:36:04;6.80;68.30
7658;DHT22;8462;53.156;8.220;2023-02-28T07:38:33;7.00;68.20
7658;DHT22;8462;53.156;8.220;2023-02-28T07:41:00;7.10;66.80
7658;DHT22;8462;53.156;8.220;2023-02-28T07:43:29;7.20;67.20
7658;DHT22;8462;53.156;8.220;2023-02-28T07:46:01;7.30;66.70
7658;DHT22;8462;53.156;8.220;2023-02-28T07:48:28;7.40;66.20
7658;DHT22;8462;53.156;8.220;2023-02-28T07:50:57;7.40;66.60
7658;DHT22;8462;53.156;8.220;2023-02-28T07:53:24;7.50;66.40
7658;DHT22;8462;53.156;8.220;2023-02-28T07:55:54;7.60;66.30
7658;DHT22;8462;53.156;8.220;2023-02-28T07:58:22;7.60;66.10
7658;DHT22;8462;53.156;8.220;2023-02-28T08:00:49;7.80;66.00
7658;DHT22;8462;53.156;8.220;2023-02-28T08:03:23;7.80;65.50
7658;DHT22;8462;53.156;8.220;2023-02-28T08:05:50;7.90;64.70
7658;DHT22;8462;53.156;8.220;2023-02-28T08:08:19;7.90;64.40
7658;DHT22;8462;53.156;8.220;2023-02-28T08:10:46;8.00;65.30
7658;DHT22;8462;53.156;8.220;2023-02-28T08:13:14;8.10;63.90
7658;DHT22;8462;53.156;8.220;2023-02-28T08:15:41;8.10;63.00
7658;DHT22;8462;53.156;8.220;2023-02-28T08:18:09;8.30;62.80
7658;DHT22;8462;53.156;8.220;2023-02-28T08:20:36;8.30;62.50
7658;DHT22;8462;53.156;8.220;2023-02-28T08:23:03;8.30;61.70
7658;DHT22;8462;53.156;8.220;2023-02-28T08:25:32;8.50;62.50
7658;DHT22;8462;53.156;8.220;2023-02-28T08:27:59;8.60;61.60
7658;DHT22;8462;53.156;8.220;2023-02-28T08:30:26;8.70;61.00
7658;DHT22;8462;53.156;8.220;2023-02-28T08:32:53;8.80;60.70
7658;DHT22;8462;53.156;8.220;2023-02-28T08:35:20;9.00;60.20
7658;DHT22;8462;53.156;8.220;2023-02-28T08:37:47;9.20;59.70
7658;DHT22;8462;53.156;8.220;2023-02-28T08:40:15;9.30;59.30
7658;DHT22;8462;53.156;8.220;2023-02-28T08:42:45;9.50;58.80
7658;DHT22;8462;53.156;8.220;2023-02-28T08:45:12;9.50;57.90
7658;DHT22;8462;53.156;8.220;2023-02-28T08:47:39;9.60;58.20
7658;DHT22;8462;53.156;8.220;2023-02-28T08:50:08;9.70;57.90
7658;DHT22;8462;53.156;8.220;2023-02-28T08:52:35;9.90;57.40
7658;DHT22;8462;53.156;8.220;2023-02-28T08:55:04;10.10;57.20
7658;DHT22;8462;53.156;8.220;2023-02-28T08:57:32;10.30;57.00
7658;DHT22;8462;53.156;8.220;2023-02-28T09:00:00;10.30;55.30
7658;DHT22;8462;53.156;8.220;2023-02-28T09:02:30;10.40;55.40
7658;DHT22;8462;53.156;8.220;2023-02-28T09:04:56;10.50;55.70
7658;DHT22;8462;53.156;8.220;2023-02-28T09:07:24;10.60;54.70
7658;DHT22;8462;53.156;8.220;2023-02-28T09:09:51;10.60;53.80
7658;DHT22;8462;53.156;8.220;2023-02-28T09:12:21;10.70;54.20
7658;DHT22;8462;53.156;8.220;2023-02-28T09:14:48;10.70;53.20
7658;DHT22;8462;53.156;8.220;2023-02-28T09:17:16;10.80;53.60
7658;DHT22;8462;53.156;8.220;2023-02-28T09:19:44;10.90;53.30
7658;DHT22;8462;53.156;8.220;2023-02-28T09:22:11;10.90;54.00
7658;DHT22;8462;53.156;8.220;2023-02-28T09:24:38;11.10;52.30
7658;DHT22;8462;53.156;8.220;2023-02-28T09:27:05;11.20;52.00
7658;DHT22;8462;53.156;8.220;2023-02-28T09:29:33;11.20;51.00
7658;DHT22;8462;53.156;8.220;2023-02-28T09:32:00;11.20;50.40
7658;DHT22;8462;53.156;8.220;2023-02-28T09:34:29;11.30;51.40
7658;DHT22;8462;53.156;8.220;2023-02-28T09:36:57;11.30;50.40
7658;DHT22;8462;53.156;8.220;2023-02-28T09:39:25;11.30;50.40
7658;DHT22;8462;53.156;8.220;2023-02-28T09:41:55;11.30;50.10
7658;DHT22;8462;53.156;8.220;2023-02-28T09:44:30;11.40;50.00
7658;DHT22;8462;53.156;8.220;2023-02-28T09:47:01;11.40;49.70
7658;DHT22;8462;53.156;8.220;2023-02-28T09:49:37;11.30;49.60
7658;DHT22;8462;53.156;8.220;2023-02-28T09:52:07;11.40;49.70
7658;DHT22;8462;53.156;8.220;2023-02-28T09:54:36;11.40;49.10
7658;DHT22;8462;53.156;8.220;2023-02-28T09:57:07;11.40;49.10
7658;DHT22;8462;53.156;8.220;2023-02-28T10:00:00;11.40;49.10
7658;DHT22;8462;53.156;8.220;2023-02-28T10:03:02;11.30;49.50
7658;DHT22;8462;53.156;8.220;2023-02-28T10:05:35;11.30;49.30
7658;DHT22;8462;53.156;8.220;2023-02-28T10:08:10;11.20;49.10
7658;DHT22;8462;53.156;8.220;2023-02-28T10:10:40;11.20;49.10
7658;DHT22;8462;53.156;8.220;2023-02-28T10:13:17;11.20;49.50
7658;DHT22;8462;53.156;8.220;2023-02-28T10:15:47;11.20;49.70
7658;DHT22;8462;53.156;8.220;2023-02-28T10:18:23;11.20;48.90
7658;DHT22;8462;53.156;8.220;2023-02-28T10:20:54;11.10;49.30
7658;DHT22;8462;53.156;8.220;2023-02-28T10:23:27;11.00;49.40
7658;DHT22;8462;53.156;8.220;2023-02-28T10:25:58;10.90;50.00
7658;DHT22;8462;53.156;8.220;2023-02-28T10:28:26;10.90;50.20
7658;DHT22;8462;53.156;8.220;2023-02-28T10:30:56;10.80;50.00
7658;DHT22;8462;53.156;8.220;2023-02-28T10:33:28;10.80;50.30
7658;DHT22;8462;53.156;8.220;2023-02-28T10:35:57;10.80;50.30
7658;DHT22;8462;53.156;8.220;2023-02-28T10:38:25;10.90;49.90
7658;DHT22;8462;53.156;8.220;2023-02-28T10:41:03;11.00;50.00
7658;DHT22;8462;53.156;8.220;2023-02-28T10:43:31;11.10;49.70
7658;DHT22;8462;53.156;8.220;2023-02-28T10:46:02;11.20;48.70
7658;DHT22;8462;53.156;8.220;2023-02-28T10:48:33;11.10;48.40
7658;DHT22;8462;53.156;8.220;2023-02-28T10:51:05;11.00;48.70
7658;DHT22;8462;53.156;8.220;2023-02-28T10:53:39;10.90;48.80
7658;DHT22;8462;53.156;8.220;2023-02-28T10:56:16;10.90;49.30
7658;DHT22;8462;53.156;8.220;2023-02-28T10:58:49;10.90;49.20
7658;DHT22;8462;53.156;8.220;2023-02-28T11:01:19;10.90;49.10
7658;DHT22;8462;53.156;8.220;2023-02-28T11:03:46;11.00;48.90
7658;DHT22;8462;53.156;8.220;2023-02-28T11:06:17;11.00;48.80
7658;DHT22;8462;53.156;8.220;2023-02-28T11:08:48;11.00;48.80
7658;DHT22;8462;53.156;8.220;2023-02-28T11:11:16;11.00;49.10
7658;DHT22;8462;53.156;8.220;2023-02-28T11:13:45;11.00;48.90
7658;DHT22;8462;53.156;8.220;2023-02-28T11:16:14;11.00;48.70
7658;DHT22;8462;53.156;8.220;2023-02-28T11:18:46;11.00;48.20
7658;DHT22;8462;53.156;8.220;2023-02-28T11:21:26;10.90;47.60
7658;DHT22;8462;53.156;8.220;2023-02-28T11:23:58;10.90;47.70
7658;DHT22;8462;53.156;8.220;2023-02-28T11:26:41;10.80;48.70
7658;DHT22;8462;53.156;8.220;2023-02-28T11:29:17;10.80;48.60
7658;DHT22;8462;53.156;8.220;2023-02-28T11:34:47;10.60;48.40
7658;DHT22;8462;53.156;8.220;2023-02-28T11:37:28;10.60;49.60
7658;DHT22;8462;53.156;8.220;2023-02-28T11:39:55;10.50;48.50
7658;DHT22;8462;53.156;8.220;2023-02-28T11:42:31;10.50;48.50
7658;DHT22;8462;53.156;8.220;2023-02-28T11:45:26;10.60;48.80
7658;DHT22;8462;53.156;8.220;2023-02-28T11:48:01;10.50;47.90
7658;DHT22;8462;53.156;8.220;2023-02-28T11:50:59;10.50;48.10
7658;DHT22;8462;53.156;8.220;2023-02-28T11:53:47;10.50;48.50
7658;DHT22;8462;53.156;8.220;2023-02-28T11:56:23;10.40;49.00
7658;DHT22;8462;53.156;8.220;2023-02-28T11:59:00;10.40;48.80
7658;DHT22;8462;53.156;8.220;2023-02-28T12:01:50;10.50;49.50
7658;DHT22;8462;53.156;8.220;2023-02-28T12:04:25;10.50;48.40
7658;DHT22;8462;53.156;8.220;2023-02-28T12:06:59;10.50;47.80
7658;DHT22;8462;53.156;8.220;2023-02-28T12:09:47;10.40;47.70
7658;DHT22;8462;53.156;8.220;2023-02-28T12:12:23;10.30;47.80
7658;DHT22;8462;53.156;8.220;2023-02-28T12:15:24;10.10;47.40
7658;DHT22;8462;53.156;8.220;2023-02-28T12:18:08;9.90;48.20
7658;DHT22;8462;53.156;8.220;2023-02-28T12:20:46;9.60;48.40
7658;DHT22;8462;53.156;8.220;2023-02-28T12:23:46;9.50;48.70
7658;DHT22;8462;53.156;8.220;2023-02-28T12:26:19;9.60;49.60
7658;DHT22;8462;53.156;8.220;2023-02-28T12:28:52;9.70;49.60
7658;DHT22;8462;53.156;8.220;2023-02-28T12:31:24;9.70;49.40
7658;DHT22;8462;53.156;8.220;2023-02-28T12:33:53;9.80;48.90
7658;DHT22;8462;53.156;8.220;2023-02-28T12:36:22;9.70;48.60
7658;DHT22;8462;53.156;8.220;2023-02-28T12:38:55;9.70;48.80
7658;DHT22;8462;53.156;8.220;2023-02-28T12:41:33;9.60;49.30
7658;DHT22;8462;53.156;8.220;2023-02-28T12:44:07;9.60;49.20
7658;DHT22;8462;53.156;8.220;2023-02-28T12:46:38;9.50;49.40
7658;DHT22;8462;53.156;8.220;2023-02-28T12:49:12;9.50;49.60
7658;DHT22;8462;53.156;8.220;2023-02-28T12:51:41;9.50;49.60
7658;DHT22;8462;53.156;8.220;2023-02-28T12:54:14;9.50;49.80
7658;DHT22;8462;53.156;8.220;2023-02-28T12:56:48;9.40;49.70
7658;DHT22;8462;53.156;8.220;2023-02-28T12:59:23;9.30;50.30
7658;DHT22;8462;53.156;8.220;2023-02-28T13:02:17;9.40;50.70
7658;DHT22;8462;53.156;8.220;2023-02-28T13:05:06;9.40;50.60
7658;DHT22;8462;53.156;8.220;2023-02-28T13:08:04;9.50;50.80
7658;DHT22;8462;53.156;8.220;2023-02-28T13:10:40;9.60;50.00
7658;DHT22;8462;53.156;8.220;2023-02-28T13:13:15;9.70;49.80
7658;DHT22;8462;53.156;8.220;2023-02-28T13:15:57;9.70;49.00
7658;DHT22;8462;53.156;8.220;2023-02-28T13:18:30;9.80;49.50
7658;DHT22;8462;53.156;8.220;2023-02-28T13:20:59;9.80;48.70
7658;DHT22;8462;53.156;8.220;2023-02-28T13:23:58;9.80;48.40
7658;DHT22;8462;53.156;8.220;2023-02-28T13:29:37;9.80;48.60
7658;DHT22;8462;53.156;8.220;2023-02-28T13:38:33;9.60;48.50
7658;DHT22;8462;53.156;8.220;2023-02-28T13:44:07;9.50;48.90
7658;DHT22;8462;53.156;8.220;2023-02-28T13:49:43;9.70;48.20
7658;DHT22;8462;53.156;8.220;2023-02-28T13:52:18;9.70;45.50
7658;DHT22;8462;53.156;8.220;2023-02-28T13:57:49;9.70;44.50
7658;DHT22;8462;53.156;8.220;2023-02-28T14:00:28;9.70;46.10
7658;DHT22;8462;53.156;8.220;2023-02-28T14:03:16;9.80;45.40
7658;DHT22;8462;53.156;8.220;2023-02-28T14:06:08;9.80;45.00
7658;DHT22;8462;53.156;8.220;2023-02-28T14:08:36;9.80;45.20
7658;DHT22;8462;53.156;8.220;2023-02-28T14:11:06;9.70;45.70
7658;DHT22;8462;53.156;8.220;2023-02-28T14:13:42;9.70;46.60
7658;DHT22;8462;53.156;8.220;2023-02-28T14:16:13;9.60;47.00
7658;DHT22;8462;53.156;8.220;2023-02-28T14:18:49;9.60;46.70
7658;DHT22;8462;53.156;8.220;2023-02-28T14:21:24;9.60;47.10
7658;DHT22;8462;53.156;8.220;2023-02-28T14:27:22;9.60;47.80
7658;DHT22;8462;53.156;8.220;2023-02-28T14:30:15;9.70;48.10
7658;DHT22;8462;53.156;8.220;2023-02-28T14:32:51;9.70;48.60
7658;DHT22;8462;53.156;8.220;2023-02-28T14:35:36;9.70;48.10
7658;DHT22;8462;53.156;8.220;2023-02-28T14:38:14;9.70;48.50
7658;DHT22;8462;53.156;8.220;2023-02-28T14:40:45;9.60;48.70
7658;DHT22;8462;53.156;8.220;2023-02-28T14:43:20;9.70;49.10
7658;DHT22;8462;53.156;8.220;2023-02-28T14:45:51;9.80;49.40
7658;DHT22;8462;53.156;8.220;2023-02-28T14:48:19;9.80;48.70
7658;DHT22;8462;53.156;8.220;2023-02-28T14:50:52;9.80;48.00
7658;DHT22;8462;53.156;8.220;2023-02-28T14:53:22;9.60;48.10
7658;DHT22;8462;53.156;8.220;2023-02-28T14:55:50;9.50;48.70
7658;DHT22;8462;53.156;8.220;2023-02-28T14:58:23;9.40;48.90
7658;DHT22;8462;53.156;8.220;2023-02-28T15:00:52;9.40;49.30
7658;DHT22;8462;53.156;8.220;2023-02-28T15:03:22;9.40;49.20
7658;DHT22;8462;53.156;8.220;2023-02-28T15:05:55;9.60;49.20
7658;DHT22;8462;53.156;8.220;2023-02-28T15:08:23;9.80;48.90
7658;DHT22;8462;53.156;8.220;2023-02-28T15:10:54;9.80;48.80
7658;DHT22;8462;53.156;8.220;2023-02-28T15:13:22;9.70;48.90
7658;DHT22;8462;53.156;8.220;2023-02-28T15:15:53;9.80;49.10
7658;DHT22;8462;53.156;8.220;2023-02-28T15:18:27;9.80;49.00
7658;DHT22;8462;53.156;8.220;2023-02-28T15:21:01;9.70;49.30
7658;DHT22;8462;53.156;8.220;2023-02-28T15:23:30;9.70;49.30
7658;DHT22;8462;53.156;8.220;2023-02-28T15:25:59;9.60;49.30
7658;DHT22;8462;53.156;8.220;2023-02-28T15:28:27;9.60;49.50
7658;DHT22;8462;53.156;8.220;2023-02-28T15:30:58;9.60;49.50
7658;DHT22;8462;53.156;8.220;2023-02-28T15:33:27;9.50;49.70
7658;DHT22;8462;53.156;8.220;2023-02-28T15:36:11;9.50;50.10
7658;DHT22;8462;53.156;8.220;2023-02-28T15:38:39;9.40;50.20
7658;DHT22;8462;53.156;8.220;2023-02-28T15:41:22;9.40;50.30
7658;DHT22;8462;53.156;8.220;2023-02-28T15:44:13;9.40;50.50
7658;DHT22;8462;53.156;8.220;2023-02-28T15:46:44;9.50;50.60
7658;DHT22;8462;53.156;8.220;2023-02-28T15:49:19;9.50;50.30
7658;DHT22;8462;53.156;8.220;2023-02-28T15:51:51;9.70;50.00
7658;DHT22;8462;53.156;8.220;2023-02-28T15:54:23;9.60;49.90
7658;DHT22;8462;53.156;8.220;2023-02-28T15:56:54;9.70;49.90
7658;DHT22;8462;53.156;8.220;2023-02-28T15:59:24;9.70;49.80
7658;DHT22;8462;53.156;8.220;2023-02-28T16:02:13;9.50;49.80
7658;DHT22;8462;53.156;8.220;2023-02-28T16:04:55;9.60;49.90
7658;DHT22;8462;53.156;8.220;2023-02-28T16:07:24;9.50;49.90
7658;DHT22;8462;53.156;8.220;2023-02-28T16:09:51;9.50;50.20
7658;DHT22;8462;53.156;8.220;2023-02-28T16:12:20;9.50;49.80
7658;DHT22;8462;53.156;8.220;2023-02-28T16:14:52;9.40;49.40
7658;DHT22;8462;53.156;8.220;2023-02-28T16:17:21;9.30;49.10
7658;DHT22;8462;53.156;8.220;2023-02-28T16:19:50;9.20;49.40
7658;DHT22;8462;53.156;8.220;2023-02-28T16:22:17;9.10;49.40
7658;DHT22;8462;53.156;8.220;2023-02-28T16:24:47;9.00;49.50
7658;DHT22;8462;53.156;8.220;2023-02-28T16:27:18;8.90;49.50
7658;DHT22;8462;53.156;8.220;2023-02-28T16:29:46;8.80;49.40
7658;DHT22;8462;53.156;8.220;2023-02-28T16:32:14;8.80;49.60
7658;DHT22;8462;53.156;8.220;2023-02-28T16:34:44;8.80;49.70
7658;DHT22;8462;53.156;8.220;2023-02-28T16:37:15;8.90;49.40
7658;DHT22;8462;53.156;8.220;2023-02-28T16:39:43;9.10;49.30
7658;DHT22;8462;53.156;8.220;2023-02-28T16:42:15;9.10;49.00
7658;DHT22;8462;53.156;8.220;2023-02-28T16:44:44;9.00;49.30
7658;DHT22;8462;53.156;8.220;2023-02-28T16:47:12;8.90;49.80
7658;DHT22;8462;53.156;8.220;2023-02-28T16:49:40;8.80;49.90
7658;DHT22;8462;53.156;8.220;2023-02-28T16:52:09;8.70;50.10
7658;DHT22;8462;53.156;8.220;2023-02-28T16:54:36;8.60;51.40
7658;DHT22;8462;53.156;8.220;2023-02-28T16:57:03;8.70;50.70
7658;DHT22;8462;53.156;8.220;2023-02-28T16:59:32;8.80;50.40
7658;DHT22;8462;53.156;8.220;2023-02-28T17:02:00;9.00;50.10
7658;DHT22;8462;53.156;8.220;2023-02-28T17:04:27;9.20;49.90
7658;DHT22;8462;53.156;8.220;2023-02-28T17:06:54;9.30;49.70
7658;DHT22;8462;53.156;8.220;2023-02-28T17:09:22;9.30;49.60